sensor_id;sensor_type;location;lat;lon;timestamp;pressure;altitude;pressure_sealevel;temperature;humidity
16793;BME280;8513;42.662;23.350;2024-03-17T00:01:10;95138.47;;;10.03;56.63
16793;BME280;8513;42.662;23.350;2024-03-17T00:03:35;95144.34;;;10.14;56.43
16793;BME280;8513;42.662;23.350;2024-03-17T00:06:01;95148.91;;;10.12;56.43
16793;BME280;8513;42.662;23.350;2024-03-17T00:08:27;95141.31;;;9.82;57.19
16793;BME280;8513;42.662;23.350;2024-03-17T00:10:53;95149.50;;;9.12;60.27
16793;BME280;8513;42.662;23.350;2024-03-17T00:13:20;95142.84;;;9.27;59.59
16793;BME280;8513;42.662;23.350;2024-03-17T00:15:47;95137.03;;;9.34;59.37
16793;BME280;8513;42.662;23.350;2024-03-17T00:18:13;95139.47;;;9.45;59.06
16793;BME280;8513;42.662;23.350;2024-03-17T00:20:38;95144.44;;;9.58;58.85
16793;BME280;8513;42.662;23.350;2024-03-17T00:23:04;95142.31;;;9.71;58.19
16793;BME280;8513;42.662;23.350;2024-03-17T00:25:31;95144.66;;;9.74;58.36
16793;BME280;8513;42.662;23.350;2024-03-17T00:27:57;95137.59;;;9.27;59.59
16793;BME280;8513;42.662;23.350;2024-03-17T00:30:23;95149.19;;;9.05;60.27
16793;BME280;8513;42.662;23.350;2024-03-17T00:32:48;95138.13;;;9.31;59.82
16793;BME280;8513;42.662;23.350;2024-03-17T00:35:13;95135.19;;;9.54;58.93
16793;BME280;8513;42.662;23.350;2024-03-17T00:37:49;95122.97;;;9.05;60.18
16793;BME280;8513;42.662;23.350;2024-03-17T00:40:16;95132.38;;;8.69;61.87
16793;BME280;8513;42.662;23.350;2024-03-17T00:42:42;95130.19;;;9.03;60.66
16793;BME280;8513;42.662;23.350;2024-03-17T00:45:08;95131.13;;;9.02;60.77
16793;BME280;8513;42.662;23.350;2024-03-17T00:47:35;95128.47;;;9.32;59.83
16793;BME280;8513;42.662;23.350;2024-03-17T00:50:00;95137.84;;;9.34;59.34
16793;BME280;8513;42.662;23.350;2024-03-17T00:52:26;95135.97;;;8.88;60.74
16793;BME280;8513;42.662;23.350;2024-03-17T00:54:52;95138.19;;;8.82;61.03
16793;BME280;8513;42.662;23.350;2024-03-17T00:57:18;95133.34;;;8.88;60.77
16793;BME280;8513;42.662;23.350;2024-03-17T00:59:43;95137.44;;;9.19;59.94
16793;BME280;8513;42.662;23.350;2024-03-17T01:02:10;95132.38;;;8.98;60.16
16793;BME280;8513;42.662;23.350;2024-03-17T01:04:38;95136.66;;;8.70;61.10
16793;BME280;8513;42.662;23.350;2024-03-17T01:07:04;95142.31;;;8.95;60.51
16793;BME280;8513;42.662;23.350;2024-03-17T01:09:29;95135.09;;;9.16;59.86
16793;BME280;8513;42.662;23.350;2024-03-17T01:11:55;95135.69;;;9.20;59.45
16793;BME280;8513;42.662;23.350;2024-03-17T01:14:21;95146.59;;;8.96;60.28
16793;BME280;8513;42.662;23.350;2024-03-17T01:16:46;95137.75;;;8.87;60.50
16793;BME280;8513;42.662;23.350;2024-03-17T01:19:11;95140.94;;;8.81;60.55
16793;BME280;8513;42.662;23.350;2024-03-17T01:21:37;95134.84;;;8.71;61.17
16793;BME280;8513;42.662;23.350;2024-03-17T01:24:02;95130.44;;;8.71;60.97
16793;BME280;8513;42.662;23.350;2024-03-17T01:26:28;95138.72;;;8.57;61.41
16793;BME280;8513;42.662;23.350;2024-03-17T01:28:53;95135.06;;;8.29;62.35
16793;BME280;8513;42.662;23.350;2024-03-17T01:31:18;95132.50;;;8.48;62.07
16793;BME280;8513;42.662;23.350;2024-03-17T01:33:45;95137.88;;;8.47;61.86
16793;BME280;8513;42.662;23.350;2024-03-17T01:36:12;95136.09;;;8.57;61.72
16793;BME280;8513;42.662;23.350;2024-03-17T01:38:37;95142.72;;;8.61;61.52
16793;BME280;8513;42.662;23.350;2024-03-17T01:41:02;95141.31;;;8.47;61.56
16793;BME280;8513;42.662;23.350;2024-03-17T01:43:29;95133.25;;;8.20;62.73
16793;BME280;8513;42.662;23.350;2024-03-17T01:45:55;95134.03;;;8.51;61.81
16793;BME280;8513;42.662;23.350;2024-03-17T01:48:21;95133.34;;;8.68;61.34
16793;BME280;8513;42.662;23.350;2024-03-17T01:50:49;95135.94;;;8.49;61.71
16793;BME280;8513;42.662;23.350;2024-03-17T01:53:17;95137.75;;;8.68;61.35
16793;BME280;8513;42.662;23.350;2024-03-17T01:55:43;95134.59;;;8.83;60.58
16793;BME280;8513;42.662;23.350;2024-03-17T01:58:09;95138.28;;;9.00;60.25
16793;BME280;8513;42.662;23.350;2024-03-17T02:00:39;95136.94;;;8.87;60.38
16793;BME280;8513;42.662;23.350;2024-03-17T02:03:05;95135.97;;;8.88;60.48
16793;BME280;8513;42.662;23.350;2024-03-17T02:05:32;95133.50;;;8.67;60.70
16793;BME280;8513;42.662;23.350;2024-03-17T02:07:59;95136.78;;;8.59;61.29
16793;BME280;8513;42.662;23.350;2024-03-17T02:10:24;95135.41;;;8.65;61.01
16793;BME280;8513;42.662;23.350;2024-03-17T02:12:50;95133.63;;;8.65;60.84
16793;BME280;8513;42.662;23.350;2024-03-17T02:15:16;95137.06;;;8.75;60.81
16793;BME280;8513;42.662;23.350;2024-03-17T02:17:41;95141.22;;;8.88;60.42
16793;BME280;8513;42.662;23.350;2024-03-17T02:20:07;95135.13;;;8.58;60.92
16793;BME280;8513;42.662;23.350;2024-03-17T02:22:34;95140.91;;;8.52;61.46
16793;BME280;8513;42.662;23.350;2024-03-17T02:25:00;95135.69;;;8.61;61.13
16793;BME280;8513;42.662;23.350;2024-03-17T02:27:25;95131.97;;;8.64;61.05
16793;BME280;8513;42.662;23.350;2024-03-17T02:29:51;95135.13;;;8.58;61.07
16793;BME280;8513;42.662;23.350;2024-03-17T02:32:16;95131.97;;;8.64;60.93
16793;BME280;8513;42.662;23.350;2024-03-17T02:34:42;95133.75;;;8.54;61.07
16793;BME280;8513;42.662;23.350;2024-03-17T02:37:09;95134.84;;;8.51;61.42
16793;BME280;8513;42.662;23.350;2024-03-17T02:39:35;95135.53;;;8.53;61.12
16793;BME280;8513;42.662;23.350;2024-03-17T02:42:06;95133.19;;;8.41;61.25
16793;BME280;8513;42.662;23.350;2024-03-17T02:44:34;95124.09;;;8.45;61.04
16793;BME280;8513;42.662;23.350;2024-03-17T02:47:01;95126.00;;;8.43;61.50
16793;BME280;8513;42.662;23.350;2024-03-17T02:49:27;95126.09;;;8.31;61.85
16793;BME280;8513;42.662;23.350;2024-03-17T02:51:56;95122.91;;;8.28;61.87
16793;BME280;8513;42.662;23.350;2024-03-17T02:54:22;95124.91;;;8.45;61.29
16793;BME280;8513;42.662;23.350;2024-03-17T02:56:48;95122.69;;;8.41;61.38
16793;BME280;8513;42.662;23.350;2024-03-17T02:59:14;95129.97;;;8.37;61.67
16793;BME280;8513;42.662;23.350;2024-03-17T03:01:39;95126.63;;;8.25;61.69
16793;BME280;8513;42.662;23.350;2024-03-17T03:04:05;95124.31;;;8.32;61.52
16793;BME280;8513;42.662;23.350;2024-03-17T03:06:33;95115.63;;;8.31;61.41
16793;BME280;8513;42.662;23.350;2024-03-17T03:08:58;95121.38;;;8.25;61.50
16793;BME280;8513;42.662;23.350;2024-03-17T03:11:23;95120.16;;;8.29;61.55
16793;BME280;8513;42.662;23.350;2024-03-17T03:13:49;95125.41;;;8.29;61.71
16793;BME280;8513;42.662;23.350;2024-03-17T03:16:14;95115.06;;;8.28;61.53
16793;BME280;8513;42.662;23.350;2024-03-17T03:18:40;95112.75;;;8.44;61.15
16793;BME280;8513;42.662;23.350;2024-03-17T03:21:06;95114.72;;;8.42;60.92
16793;BME280;8513;42.662;23.350;2024-03-17T03:23:32;95112.03;;;8.32;61.19
16793;BME280;8513;42.662;23.350;2024-03-17T03:25:58;95118.28;;;8.41;61.33
16793;BME280;8513;42.662;23.350;2024-03-17T03:28:25;95113.84;;;8.32;61.34
16793;BME280;8513;42.662;23.350;2024-03-17T03:30:51;95109.38;;;8.23;61.58
16793;BME280;8513;42.662;23.350;2024-03-17T03:33:18;95122.91;;;8.28;61.57
16793;BME280;8513;42.662;23.350;2024-03-17T03:35:43;95123.41;;;8.02;62.43
16793;BME280;8513;42.662;23.350;2024-03-17T03:38:09;95124.38;;;8.01;62.39
16793;BME280;8513;42.662;23.350;2024-03-17T03:40:34;95124.50;;;8.00;62.14
16793;BME280;8513;42.662;23.350;2024-03-17T03:43:00;95125.63;;;8.07;62.31
16793;BME280;8513;42.662;23.350;2024-03-17T03:45:25;95128.38;;;8.05;62.00
16793;BME280;8513;42.662;23.350;2024-03-17T03:47:51;95133.63;;;8.05;61.92
16793;BME280;8513;42.662;23.350;2024-03-17T03:50:21;95131.69;;;8.07;61.76
16793;BME280;8513;42.662;23.350;2024-03-17T03:52:47;95141.22;;;8.08;61.71
16793;BME280;8513;42.662;23.350;2024-03-17T03:55:16;95136.94;;;8.07;61.72
16793;BME280;8513;42.662;23.350;2024-03-17T03:57:43;95143.00;;;8.08;61.69
16793;BME280;8513;42.662;23.350;2024-03-17T04:00:11;95149.50;;;8.13;61.51
16793;BME280;8513;42.662;23.350;2024-03-17T04:02:48;95151.03;;;8.16;61.50
16793;BME280;8513;42.662;23.350;2024-03-17T04:05:14;95150.81;;;7.98;61.82
16793;BME280;8513;42.662;23.350;2024-03-17T04:07:40;95148.75;;;7.92;62.19
16793;BME280;8513;42.662;23.350;2024-03-17T04:10:08;95150.97;;;7.97;62.01
16793;BME280;8513;42.662;23.350;2024-03-17T04:12:33;95150.25;;;7.94;62.29
16793;BME280;8513;42.662;23.350;2024-03-17T04:14:59;95154.53;;;7.95;62.40
16793;BME280;8513;42.662;23.350;2024-03-17T04:17:25;95166.56;;;7.77;62.64
16793;BME280;8513;42.662;23.350;2024-03-17T04:19:51;95164.09;;;7.76;62.61
16793;BME280;8513;42.662;23.350;2024-03-17T04:22:18;95165.75;;;7.77;62.48
16793;BME280;8513;42.662;23.350;2024-03-17T04:24:44;95164.09;;;7.76;62.41
16793;BME280;8513;42.662;23.350;2024-03-17T04:27:09;95164.06;;;7.45;63.48
16793;BME280;8513;42.662;23.350;2024-03-17T04:29:35;95163.06;;;7.36;63.40
16793;BME280;8513;42.662;23.350;2024-03-17T04:32:00;95167.84;;;7.52;62.94
16793;BME280;8513;42.662;23.350;2024-03-17T04:34:27;95173.63;;;7.56;62.85
16793;BME280;8513;42.662;23.350;2024-03-17T04:36:52;95173.88;;;7.53;62.91
16793;BME280;8513;42.662;23.350;2024-03-17T04:39:19;95181.44;;;7.25;64.33
16793;BME280;8513;42.662;23.350;2024-03-17T04:41:45;95185.97;;;7.44;63.47
16793;BME280;8513;42.662;23.350;2024-03-17T04:44:10;95184.00;;;7.36;63.51
16793;BME280;8513;42.662;23.350;2024-03-17T04:46:36;95190.56;;;7.51;63.20
16793;BME280;8513;42.662;23.350;2024-03-17T04:49:01;95187.09;;;7.51;63.26
16793;BME280;8513;42.662;23.350;2024-03-17T04:51:29;95198.19;;;7.64;62.76
16793;BME280;8513;42.662;23.350;2024-03-17T04:53:54;95192.72;;;7.46;63.31
16793;BME280;8513;42.662;23.350;2024-03-17T04:56:19;95193.81;;;7.23;64.25
16793;BME280;8513;42.662;23.350;2024-03-17T04:58:45;95189.97;;;7.27;64.04
16793;BME280;8513;42.662;23.350;2024-03-17T05:01:10;95206.06;;;7.22;64.15
16793;BME280;8513;42.662;23.350;2024-03-17T05:03:36;95204.41;;;7.42;63.67
16793;BME280;8513;42.662;23.350;2024-03-17T05:06:03;95199.97;;;7.64;63.24
16793;BME280;8513;42.662;23.350;2024-03-17T05:08:29;95215.50;;;7.77;62.82
16793;BME280;8513;42.662;23.350;2024-03-17T05:11:05;95218.56;;;7.61;62.74
16793;BME280;8513;42.662;23.350;2024-03-17T05:13:32;95218.25;;;7.54;63.32
16793;BME280;8513;42.662;23.350;2024-03-17T05:15:58;95223.44;;;7.75;63.17
16793;BME280;8513;42.662;23.350;2024-03-17T05:18:23;95227.41;;;7.90;62.15
16793;BME280;8513;42.662;23.350;2024-03-17T05:23:28;95225.78;;;7.99;62.05
16793;BME280;8513;42.662;23.350;2024-03-17T05:25:54;95226.75;;;7.98;61.96
16793;BME280;8513;42.662;23.350;2024-03-17T05:28:19;95242.09;;;8.03;62.18
16793;BME280;8513;42.662;23.350;2024-03-17T05:30:45;95228.72;;;8.06;62.02
16793;BME280;8513;42.662;23.350;2024-03-17T05:33:10;95232.00;;;7.98;62.07
16793;BME280;8513;42.662;23.350;2024-03-17T05:35:36;95236.41;;;7.98;62.34
16793;BME280;8513;42.662;23.350;2024-03-17T05:38:01;95232.81;;;7.99;62.18
16793;BME280;8513;42.662;23.350;2024-03-17T05:40:27;95233.41;;;8.02;62.27
16793;BME280;8513;42.662;23.350;2024-03-17T05:42:52;95233.16;;;8.15;61.96
16793;BME280;8513;42.662;23.350;2024-03-17T05:45:18;95231.28;;;8.27;61.73
16793;BME280;8513;42.662;23.350;2024-03-17T05:47:43;95233.31;;;8.23;61.95
16793;BME280;8513;42.662;23.350;2024-03-17T05:50:09;95224.16;;;8.38;61.55
16793;BME280;8513;42.662;23.350;2024-03-17T05:52:34;95219.19;;;8.35;61.46
16793;BME280;8513;42.662;23.350;2024-03-17T05:55:00;95222.81;;;8.44;61.34
16793;BME280;8513;42.662;23.350;2024-03-17T05:57:25;95217.88;;;8.51;61.12
16793;BME280;8513;42.662;23.350;2024-03-17T05:59:51;95217.16;;;8.39;61.53
16793;BME280;8513;42.662;23.350;2024-03-17T06:02:17;95229.91;;;8.53;61.40
16793;BME280;8513;42.662;23.350;2024-03-17T06:04:44;95223.72;;;8.64;61.30
16793;BME280;8513;42.662;23.350;2024-03-17T06:07:09;95230.75;;;8.73;61.11
16793;BME280;8513;42.662;23.350;2024-03-17T06:09:35;95232.16;;;8.77;61.12
16793;BME280;8513;42.662;23.350;2024-03-17T06:12:00;95238.03;;;8.60;61.59
16793;BME280;8513;42.662;23.350;2024-03-17T06:14:26;95242.66;;;8.77;60.96
16793;BME280;8513;42.662;23.350;2024-03-17T06:16:51;95239.13;;;8.57;61.38
16793;BME280;8513;42.662;23.350;2024-03-17T06:19:17;95243.31;;;8.70;61.22
16793;BME280;8513;42.662;23.350;2024-03-17T06:21:42;95246.09;;;8.78;61.07
16793;BME280;8513;42.662;23.350;2024-03-17T06:24:08;95249.28;;;8.91;60.73
16793;BME280;8513;42.662;23.350;2024-03-17T06:26:33;95237.16;;;9.10;59.85
16793;BME280;8513;42.662;23.350;2024-03-17T06:29:02;95248.06;;;9.15;59.94
16793;BME280;8513;42.662;23.350;2024-03-17T06:31:28;95250.69;;;9.15;59.89
16793;BME280;8513;42.662;23.350;2024-03-17T06:33:53;95247.94;;;9.36;59.26
16793;BME280;8513;42.662;23.350;2024-03-17T06:36:19;95255.25;;;9.42;58.97
16793;BME280;8513;42.662;23.350;2024-03-17T06:38:44;95253.19;;;9.26;59.01
16793;BME280;8513;42.662;23.350;2024-03-17T06:41:10;95257.59;;;9.55;58.64
16793;BME280;8513;42.662;23.350;2024-03-17T06:43:35;95261.44;;;9.41;58.58
16793;BME280;8513;42.662;23.350;2024-03-17T06:46:01;95260.94;;;9.27;58.88
16793;BME280;8513;42.662;23.350;2024-03-17T06:48:28;95259.69;;;9.41;58.84
16793;BME280;8513;42.662;23.350;2024-03-17T06:50:54;95264.38;;;9.47;58.70
16793;BME280;8513;42.662;23.350;2024-03-17T06:53:23;95269.34;;;9.60;58.45
16793;BME280;8513;42.662;23.350;2024-03-17T06:55:57;95256.06;;;9.71;57.80
16793;BME280;8513;42.662;23.350;2024-03-17T06:58:23;95258.94;;;9.78;57.64
16793;BME280;8513;42.662;23.350;2024-03-17T07:00:56;95267.91;;;9.85;57.36
16793;BME280;8513;42.662;23.350;2024-03-17T07:03:26;95261.56;;;9.88;57.37
16793;BME280;8513;42.662;23.350;2024-03-17T07:05:55;95257.28;;;9.67;57.81
16793;BME280;8513;42.662;23.350;2024-03-17T07:08:23;95262.41;;;9.79;57.62
16793;BME280;8513;42.662;23.350;2024-03-17T07:11:05;95257.66;;;10.02;57.38
16793;BME280;8513;42.662;23.350;2024-03-17T07:13:38;95256.50;;;10.14;56.82
16793;BME280;8513;42.662;23.350;2024-03-17T07:16:07;95256.50;;;10.14;56.53
16793;BME280;8513;42.662;23.350;2024-03-17T07:18:33;95266.16;;;10.23;56.82
16793;BME280;8513;42.662;23.350;2024-03-17T07:21:00;95260.09;;;10.32;56.19
16793;BME280;8513;42.662;23.350;2024-03-17T07:23:26;95260.59;;;10.46;55.90
16793;BME280;8513;42.662;23.350;2024-03-17T07:25:56;95258.16;;;10.34;55.93
16793;BME280;8513;42.662;23.350;2024-03-17T07:28:22;95262.53;;;10.44;55.57
16793;BME280;8513;42.662;23.350;2024-03-17T07:30:55;95249.34;;;10.53;55.47
16793;BME280;8513;42.662;23.350;2024-03-17T07:33:22;95259.19;;;10.42;55.48
16793;BME280;8513;42.662;23.350;2024-03-17T07:35:49;95257.75;;;10.57;55.32
16793;BME280;8513;42.662;23.350;2024-03-17T07:38:15;95256.31;;;10.72;55.49
16793;BME280;8513;42.662;23.350;2024-03-17T07:40:41;95251.03;;;10.72;54.67
16793;BME280;8513;42.662;23.350;2024-03-17T07:43:07;95250.00;;;10.83;54.48
16793;BME280;8513;42.662;23.350;2024-03-17T07:45:33;95259.59;;;11.02;54.30
16793;BME280;8513;42.662;23.350;2024-03-17T07:47:58;95251.22;;;10.89;54.34
16793;BME280;8513;42.662;23.350;2024-03-17T07:50:24;95254.53;;;10.91;54.38
16793;BME280;8513;42.662;23.350;2024-03-17T07:52:49;95263.34;;;10.99;54.17
16793;BME280;8513;42.662;23.350;2024-03-17T07:55:15;95259.00;;;11.08;53.84
16793;BME280;8513;42.662;23.350;2024-03-17T07:57:41;95260.75;;;11.17;52.99
16793;BME280;8513;42.662;23.350;2024-03-17T08:00:07;95257.81;;;11.20;52.36
16793;BME280;8513;42.662;23.350;2024-03-17T08:02:42;95256.59;;;11.15;52.53
16793;BME280;8513;42.662;23.350;2024-03-17T08:05:10;95257.09;;;10.82;52.64
16793;BME280;8513;42.662;23.350;2024-03-17T08:07:35;95258.38;;;10.96;52.64
16793;BME280;8513;42.662;23.350;2024-03-17T08:10:00;95265.31;;;11.15;51.88
16793;BME280;8513;42.662;23.350;2024-03-17T08:12:28;95254.94;;;11.14;51.92
16793;BME280;8513;42.662;23.350;2024-03-17T08:14:54;95265.31;;;11.33;51.57
16793;BME280;8513;42.662;23.350;2024-03-17T08:17:19;95258.63;;;11.57;51.53
16793;BME280;8513;42.662;23.350;2024-03-17T08:19:45;95248.63;;;11.60;51.37
16793;BME280;8513;42.662;23.350;2024-03-17T08:22:10;95248.44;;;11.62;50.76
16793;BME280;8513;42.662;23.350;2024-03-17T08:24:36;95247.50;;;11.45;50.99
16793;BME280;8513;42.662;23.350;2024-03-17T08:27:01;95250.41;;;11.60;50.68
16793;BME280;8513;42.662;23.350;2024-03-17T08:29:27;95256.34;;;11.62;50.38
16793;BME280;8513;42.662;23.350;2024-03-17T08:31:52;95254.72;;;11.61;49.83
16793;BME280;8513;42.662;23.350;2024-03-17T08:34:18;95252.75;;;11.45;50.37
16793;BME280;8513;42.662;23.350;2024-03-17T08:36:43;95250.81;;;11.29;50.66
16793;BME280;8513;42.662;23.350;2024-03-17T08:39:09;95248.63;;;11.42;50.09
16793;BME280;8513;42.662;23.350;2024-03-17T08:41:36;95244.69;;;11.46;50.03
16793;BME280;8513;42.662;23.350;2024-03-17T08:44:02;95237.94;;;11.44;50.12
16793;BME280;8513;42.662;23.350;2024-03-17T08:46:27;95240.97;;;11.31;50.62
16793;BME280;8513;42.662;23.350;2024-03-17T08:48:52;95226.66;;;11.34;50.60
16793;BME280;8513;42.662;23.350;2024-03-17T08:51:18;95234.84;;;11.48;50.26
16793;BME280;8513;42.662;23.350;2024-03-17T08:53:43;95226.13;;;11.48;49.86
16793;BME280;8513;42.662;23.350;2024-03-17T08:56:09;95233.34;;;11.64;50.17
16793;BME280;8513;42.662;23.350;2024-03-17T08:58:34;95230.63;;;11.56;50.20
16793;BME280;8513;42.662;23.350;2024-03-17T09:01:06;95222.53;;;11.75;49.80
16793;BME280;8513;42.662;23.350;2024-03-17T09:03:32;95213.63;;;11.94;49.22
16793;BME280;8513;42.662;23.350;2024-03-17T09:05:57;95213.50;;;11.96;49.78
16793;BME280;8513;42.662;23.350;2024-03-17T09:08:24;95222.31;;;12.12;49.14
16793;BME280;8513;42.662;23.350;2024-03-17T09:10:52;95216.34;;;12.36;48.59
16793;BME280;8513;42.662;23.350;2024-03-17T09:13:19;95210.75;;;12.40;48.34
16793;BME280;8513;42.662;23.350;2024-03-17T09:15:56;95215.03;;;12.32;48.42
16793;BME280;8513;42.662;23.350;2024-03-17T09:18:22;95203.97;;;12.37;48.46
16793;BME280;8513;42.662;23.350;2024-03-17T09:21:02;95207.59;;;12.70;47.78
16793;BME280;8513;42.662;23.350;2024-03-17T09:23:28;95195.97;;;12.47;48.21
16793;BME280;8513;42.662;23.350;2024-03-17T09:26:02;95203.25;;;12.61;47.99
16793;BME280;8513;42.662;23.350;2024-03-17T09:28:29;95198.09;;;12.43;47.58
16793;BME280;8513;42.662;23.350;2024-03-17T09:30:55;95197.50;;;12.66;47.35
16793;BME280;8513;42.662;23.350;2024-03-17T09:33:25;95184.59;;;12.46;48.04
16793;BME280;8513;42.662;23.350;2024-03-17T09:36:08;95195.53;;;12.68;47.23
16793;BME280;8513;42.662;23.350;2024-03-17T09:38:36;95181.38;;;12.77;45.62
16793;BME280;8513;42.662;23.350;2024-03-17T09:41:02;95173.81;;;12.82;44.95
16793;BME280;8513;42.662;23.350;2024-03-17T09:43:29;95183.41;;;12.91;44.62
16793;BME280;8513;42.662;23.350;2024-03-17T09:45:56;95183.25;;;13.17;43.26
16793;BME280;8513;42.662;23.350;2024-03-17T09:48:26;95176.03;;;13.28;42.21
16793;BME280;8513;42.662;23.350;2024-03-17T09:50:56;95193.72;;;13.35;41.68
16793;BME280;8513;42.662;23.350;2024-03-17T09:53:33;95177.38;;;13.40;40.59
16793;BME280;8513;42.662;23.350;2024-03-17T09:56:05;95179.34;;;13.30;40.82
16793;BME280;8513;42.662;23.350;2024-03-17T09:58:34;95179.19;;;13.72;38.98
16793;BME280;8513;42.662;23.350;2024-03-17T10:00:59;95175.69;;;13.88;38.22
16793;BME280;8513;42.662;23.350;2024-03-17T10:03:45;95184.59;;;13.87;37.82
16793;BME280;8513;42.662;23.350;2024-03-17T10:06:14;95176.13;;;14.00;37.45
16793;BME280;8513;42.662;23.350;2024-03-17T10:08:51;95175.16;;;14.09;37.56
16793;BME280;8513;42.662;23.350;2024-03-17T10:11:37;95166.63;;;14.30;36.85
16793;BME280;8513;42.662;23.350;2024-03-17T10:14:03;95177.38;;;14.37;37.87
16793;BME280;8513;42.662;23.350;2024-03-17T10:16:30;95167.41;;;14.55;37.93
16793;BME280;8513;42.662;23.350;2024-03-17T10:21:38;95178.97;;;14.62;36.95
16793;BME280;8513;42.662;23.350;2024-03-17T10:24:20;95178.72;;;14.72;36.54
16793;BME280;8513;42.662;23.350;2024-03-17T10:26:57;95169.91;;;14.80;37.05
16793;BME280;8513;42.662;23.350;2024-03-17T10:31:56;95169.47;;;14.20;37.39
16793;BME280;8513;42.662;23.350;2024-03-17T10:34:23;95173.50;;;14.55;36.98
16793;BME280;8513;42.662;23.350;2024-03-17T10:37:14;95175.81;;;14.50;36.96
16793;BME280;8513;42.662;23.350;2024-03-17T10:39:42;95169.53;;;14.51;36.54
16793;BME280;8513;42.662;23.350;2024-03-17T10:42:09;95170.81;;;14.64;36.25
16793;BME280;8513;42.662;23.350;2024-03-17T10:44:36;95172.06;;;14.84;35.21
16793;BME280;8513;42.662;23.350;2024-03-17T10:47:03;95173.63;;;14.93;34.84
16793;BME280;8513;42.662;23.350;2024-03-17T10:49:36;95168.84;;;14.97;33.63
16793;BME280;8513;42.662;23.350;2024-03-17T10:52:04;95167.34;;;15.17;33.21
16793;BME280;8513;42.662;23.350;2024-03-17T10:54:31;95170.63;;;14.96;33.81
16793;BME280;8513;42.662;23.350;2024-03-17T10:59:48;95162.31;;;15.08;33.32
16793;BME280;8513;42.662;23.350;2024-03-17T11:02:20;95162.00;;;15.03;32.60
16793;BME280;8513;42.662;23.350;2024-03-17T11:04:54;95156.06;;;15.00;31.26
16793;BME280;8513;42.662;23.350;2024-03-17T11:07:21;95155.28;;;14.92;31.11
16793;BME280;8513;42.662;23.350;2024-03-17T11:09:48;95151.94;;;14.98;30.97
16793;BME280;8513;42.662;23.350;2024-03-17T11:12:43;95150.72;;;15.09;33.27
16793;BME280;8513;42.662;23.350;2024-03-17T11:17:44;95163.44;;;15.13;34.28
16793;BME280;8513;42.662;23.350;2024-03-17T11:22:53;95149.56;;;15.26;33.14
16793;BME280;8513;42.662;23.350;2024-03-17T11:25:42;95133.00;;;14.86;34.59
16793;BME280;8513;42.662;23.350;2024-03-17T11:33:57;95136.47;;;15.33;35.97
16793;BME280;8513;42.662;23.350;2024-03-17T11:39:04;95126.69;;;15.71;35.13
16793;BME280;8513;42.662;23.350;2024-03-17T11:41:47;95125.22;;;15.69;35.03
16793;BME280;8513;42.662;23.350;2024-03-17T11:49:28;95118.50;;;16.25;32.75
16793;BME280;8513;42.662;23.350;2024-03-17T11:51:57;95114.72;;;16.35;31.83
16793;BME280;8513;42.662;23.350;2024-03-17T11:54:28;95120.50;;;16.38;32.25
16793;BME280;8513;42.662;23.350;2024-03-17T11:59:44;95102.06;;;17.03;31.41
16793;BME280;8513;42.662;23.350;2024-03-17T12:02:17;95117.88;;;17.11;30.87
16793;BME280;8513;42.662;23.350;2024-03-17T12:04:43;95106.25;;;17.40;29.80
16793;BME280;8513;42.662;23.350;2024-03-17T12:07:16;95107.25;;;17.32;29.31
16793;BME280;8513;42.662;23.350;2024-03-17T12:09:44;95109.94;;;17.39;29.44
16793;BME280;8513;42.662;23.350;2024-03-17T12:12:19;95111.75;;;17.81;29.59
16793;BME280;8513;42.662;23.350;2024-03-17T12:14:46;95105.69;;;17.94;29.21
16793;BME280;8513;42.662;23.350;2024-03-17T12:17:14;95105.91;;;17.71;29.71
16793;BME280;8513;42.662;23.350;2024-03-17T12:19:40;95104.63;;;17.39;29.78
16793;BME280;8513;42.662;23.350;2024-03-17T12:22:07;95093.66;;;17.77;29.61
16793;BME280;8513;42.662;23.350;2024-03-17T12:24:35;95099.25;;;17.54;29.89
16793;BME280;8513;42.662;23.350;2024-03-17T12:27:04;95116.06;;;17.39;30.06
16793;BME280;8513;42.662;23.350;2024-03-17T12:29:34;95113.81;;;17.15;30.66
16793;BME280;8513;42.662;23.350;2024-03-17T12:32:25;95105.78;;;17.30;30.42
16793;BME280;8513;42.662;23.350;2024-03-17T12:34:55;95099.84;;;17.28;30.94
16793;BME280;8513;42.662;23.350;2024-03-17T12:37:26;95108.13;;;17.18;31.63
16793;BME280;8513;42.662;23.350;2024-03-17T12:39:57;95110.53;;;17.13;32.21
16793;BME280;8513;42.662;23.350;2024-03-17T12:42:26;95105.97;;;16.70;33.10
16793;BME280;8513;42.662;23.350;2024-03-17T12:44:54;95098.81;;;16.86;33.22
16793;BME280;8513;42.662;23.350;2024-03-17T12:47:21;95100.81;;;16.84;33.56
16793;BME280;8513;42.662;23.350;2024-03-17T12:49:48;95103.63;;;16.97;33.55
16793;BME280;8513;42.662;23.350;2024-03-17T12:52:18;95107.41;;;16.88;33.70
16793;BME280;8513;42.662;23.350;2024-03-17T12:54:45;95089.97;;;17.43;32.75
16793;BME280;8513;42.662;23.350;2024-03-17T12:57:20;95090.44;;;18.10;32.13
16793;BME280;8513;42.662;23.350;2024-03-17T13:00:16;95091.16;;;18.86;30.84
16793;BME280;8513;42.662;23.350;2024-03-17T13:03:04;95092.19;;;18.92;31.15
16793;BME280;8513;42.662;23.350;2024-03-17T13:05:30;95094.88;;;18.85;31.14
16793;BME280;8513;42.662;23.350;2024-03-17T13:07:56;95082.53;;;18.84;31.35
16793;BME280;8513;42.662;23.350;2024-03-17T13:10:23;95084.94;;;18.66;32.25
16793;BME280;8513;42.662;23.350;2024-03-17T13:12:58;95092.63;;;18.41;32.50
16793;BME280;8513;42.662;23.350;2024-03-17T13:15:25;95093.47;;;18.48;32.54
16793;BME280;8513;42.662;23.350;2024-03-17T13:17:51;95090.47;;;18.23;32.80
16793;BME280;8513;42.662;23.350;2024-03-17T13:20:17;95088.22;;;17.85;33.37
16793;BME280;8513;42.662;23.350;2024-03-17T13:22:43;95084.44;;;18.01;33.46
16793;BME280;8513;42.662;23.350;2024-03-17T13:25:14;95076.22;;;17.68;33.81
16793;BME280;8513;42.662;23.350;2024-03-17T13:27:41;95083.47;;;17.52;34.19
16793;BME280;8513;42.662;23.350;2024-03-17T13:30:07;95085.78;;;17.34;34.40
16793;BME280;8513;42.662;23.350;2024-03-17T13:32:35;95091.19;;;17.19;34.93
16793;BME280;8513;42.662;23.350;2024-03-17T13:35:00;95088.88;;;16.94;35.78
16793;BME280;8513;42.662;23.350;2024-03-17T13:37:26;95084.59;;;16.93;36.23
16793;BME280;8513;42.662;23.350;2024-03-17T13:39:52;95094.09;;;16.66;36.87